sensor_id;sensor_type;location;lat;lon;timestamp;pressure;altitude;pressure_sealevel;temperature;humidity
47592;BME280;33317;33.356;-117.184;2023-07-20T00:02:17;99089.35;;;30.29;22.43
47592;BME280;33317;33.356;-117.184;2023-07-20T00:04:45;99089.10;;;30.60;22.10
47592;BME280;33317;33.356;-117.184;2023-07-20T00:07:14;99086.67;;;30.71;21.98
47592;BME280;33317;33.356;-117.184;2023-07-20T00:09:42;99083.12;;;30.46;22.11
47592;BME280;33317;33.356;-117.184;2023-07-20T00:12:10;99082.15;;;30.11;21.93
47592;BME280;33317;33.356;-117.184;2023-07-20T00:14:39;99086.70;;;30.45;22.04
47592;BME280;33317;33.356;-117.184;2023-07-20T00:17:08;99087.96;;;30.22;22.17
47592;BME280;33317;33.356;-117.184;2023-07-20T00:19:36;99090.45;;;30.37;22.20
47592;BME280;33317;33.356;-117.184;2023-07-20T00:22:05;99090.15;;;30.39;21.95
47592;BME280;33317;33.356;-117.184;2023-07-20T00:24:33;99090.45;;;30.27;22.04
47592;BME280;33317;33.356;-117.184;2023-07-20T00:27:01;99086.83;;;29.82;22.35
47592;BME280;33317;33.356;-117.184;2023-07-20T00:29:30;99083.49;;;30.12;22.52
47592;BME280;33317;33.356;-117.184;2023-07-20T00:31:59;99088.07;;;30.13;22.50
47592;BME280;33317;33.356;-117.184;2023-07-20T00:34:28;99089.00;;;30.44;22.47
47592;BME280;33317;33.356;-117.184;2023-07-20T00:36:56;99088.95;;;30.42;22.11
47592;BME280;33317;33.356;-117.184;2023-07-20T00:39:25;99087.60;;;30.44;22.16
47592;BME280;33317;33.356;-117.184;2023-07-20T00:41:54;99084.83;;;30.51;21.98
47592;BME280;33317;33.356;-117.184;2023-07-20T00:44:22;99079.76;;;30.61;21.98
47592;BME280;33317;33.356;-117.184;2023-07-20T00:46:50;99077.47;;;30.12;21.97
47592;BME280;33317;33.356;-117.184;2023-07-20T00:49:19;99075.94;;;30.52;21.80
47592;BME280;33317;33.356;-117.184;2023-07-20T00:51:48;99075.01;;;30.22;21.94
47592;BME280;33317;33.356;-117.184;2023-07-20T00:54:17;99077.63;;;30.26;21.83
47592;BME280;33317;33.356;-117.184;2023-07-20T00:56:46;99075.65;;;30.17;22.05
47592;BME280;33317;33.356;-117.184;2023-07-20T00:59:15;99078.32;;;30.44;21.78
47592;BME280;33317;33.356;-117.184;2023-07-20T01:01:43;99079.12;;;30.22;21.75
47592;BME280;33317;33.356;-117.184;2023-07-20T01:04:11;99083.36;;;30.29;21.55
47592;BME280;33317;33.356;-117.184;2023-07-20T01:06:48;99084.28;;;30.53;21.53
47592;BME280;33317;33.356;-117.184;2023-07-20T01:09:24;99083.07;;;30.59;21.45
47592;BME280;33317;33.356;-117.184;2023-07-20T01:11:59;99083.98;;;30.44;21.33
47592;BME280;33317;33.356;-117.184;2023-07-20T01:14:28;99084.77;;;30.24;21.71
47592;BME280;33317;33.356;-117.184;2023-07-20T01:16:58;99082.42;;;30.45;22.07
47592;BME280;33317;33.356;-117.184;2023-07-20T01:19:27;99085.14;;;30.46;22.24
47592;BME280;33317;33.356;-117.184;2023-07-20T01:21:59;99086.52;;;30.65;21.81
47592;BME280;33317;33.356;-117.184;2023-07-20T01:24:42;99090.92;;;30.69;21.57
47592;BME280;33317;33.356;-117.184;2023-07-20T01:27:30;99087.82;;;30.56;21.54
47592;BME280;33317;33.356;-117.184;2023-07-20T01:30:18;99090.62;;;30.68;21.35
47592;BME280;33317;33.356;-117.184;2023-07-20T01:32:55;99091.07;;;30.34;21.49
47592;BME280;33317;33.356;-117.184;2023-07-20T01:35:28;99097.58;;;30.25;21.46
47592;BME280;33317;33.356;-117.184;2023-07-20T01:37:57;99098.59;;;30.15;21.39
47592;BME280;33317;33.356;-117.184;2023-07-20T01:40:26;99096.77;;;30.18;21.30
47592;BME280;33317;33.356;-117.184;2023-07-20T01:42:54;99096.68;;;30.30;21.41
47592;BME280;33317;33.356;-117.184;2023-07-20T01:45:23;99094.77;;;30.12;21.91
47592;BME280;33317;33.356;-117.184;2023-07-20T01:47:51;99100.18;;;30.29;22.13
47592;BME280;33317;33.356;-117.184;2023-07-20T01:50:20;99101.02;;;30.60;21.70
47592;BME280;33317;33.356;-117.184;2023-07-20T01:52:48;99100.36;;;30.42;21.54
47592;BME280;33317;33.356;-117.184;2023-07-20T01:55:16;99096.96;;;30.40;21.43
47592;BME280;33317;33.356;-117.184;2023-07-20T01:57:45;99098.28;;;30.42;21.31
47592;BME280;33317;33.356;-117.184;2023-07-20T02:00:15;99101.30;;;30.50;21.34
47592;BME280;33317;33.356;-117.184;2023-07-20T02:02:44;99104.28;;;30.23;21.26
47592;BME280;33317;33.356;-117.184;2023-07-20T02:05:12;99109.46;;;30.27;21.17
47592;BME280;33317;33.356;-117.184;2023-07-20T02:07:41;99107.80;;;30.18;21.19
47592;BME280;33317;33.356;-117.184;2023-07-20T02:10:10;99110.07;;;30.51;21.16
47592;BME280;33317;33.356;-117.184;2023-07-20T02:12:37;99112.38;;;29.87;21.93
47592;BME280;33317;33.356;-117.184;2023-07-20T02:15:07;99115.17;;;29.61;22.07
47592;BME280;33317;33.356;-117.184;2023-07-20T02:17:35;99114.34;;;29.82;21.97
47592;BME280;33317;33.356;-117.184;2023-07-20T02:20:05;99115.20;;;30.20;21.75
47592;BME280;33317;33.356;-117.184;2023-07-20T02:22:34;99117.25;;;30.21;21.46
47592;BME280;33317;33.356;-117.184;2023-07-20T02:25:02;99118.55;;;29.96;21.54
47592;BME280;33317;33.356;-117.184;2023-07-20T02:27:30;99120.30;;;30.13;21.80
47592;BME280;33317;33.356;-117.184;2023-07-20T02:29:59;99123.44;;;30.20;22.04
47592;BME280;33317;33.356;-117.184;2023-07-20T02:32:28;99124.88;;;30.20;21.96
47592;BME280;33317;33.356;-117.184;2023-07-20T02:34:56;99129.33;;;29.96;21.64
47592;BME280;33317;33.356;-117.184;2023-07-20T02:37:25;99128.41;;;30.43;21.43
47592;BME280;33317;33.356;-117.184;2023-07-20T02:39:54;99128.96;;;30.39;21.53
47592;BME280;33317;33.356;-117.184;2023-07-20T02:42:25;99127.96;;;30.23;21.93
47592;BME280;33317;33.356;-117.184;2023-07-20T02:44:55;99126.86;;;30.31;22.32
47592;BME280;33317;33.356;-117.184;2023-07-20T02:47:23;99125.04;;;30.14;22.27
47592;BME280;33317;33.356;-117.184;2023-07-20T02:49:51;99120.28;;;30.28;21.84
47592;BME280;33317;33.356;-117.184;2023-07-20T02:52:19;99122.40;;;30.47;21.57
47592;BME280;33317;33.356;-117.184;2023-07-20T02:54:48;99128.39;;;30.04;21.48
47592;BME280;33317;33.356;-117.184;2023-07-20T02:57:16;99130.17;;;29.94;21.72
47592;BME280;33317;33.356;-117.184;2023-07-20T02:59:45;99132.77;;;29.75;22.06
47592;BME280;33317;33.356;-117.184;2023-07-20T03:02:14;99135.99;;;29.86;22.21
47592;BME280;33317;33.356;-117.184;2023-07-20T03:04:42;99136.44;;;29.98;22.30
47592;BME280;33317;33.356;-117.184;2023-07-20T03:07:11;99136.32;;;30.26;21.78
47592;BME280;33317;33.356;-117.184;2023-07-20T03:09:39;99136.42;;;30.61;21.43
47592;BME280;33317;33.356;-117.184;2023-07-20T03:12:09;99145.86;;;30.35;21.66
47592;BME280;33317;33.356;-117.184;2023-07-20T03:14:37;99143.49;;;29.13;22.51
47592;BME280;33317;33.356;-117.184;2023-07-20T03:17:06;99141.65;;;28.85;22.88
47592;BME280;33317;33.356;-117.184;2023-07-20T03:19:34;99144.44;;;29.68;22.71
47592;BME280;33317;33.356;-117.184;2023-07-20T03:22:05;99145.96;;;29.10;23.08
47592;BME280;33317;33.356;-117.184;2023-07-20T03:24:33;99144.17;;;29.67;22.80
47592;BME280;33317;33.356;-117.184;2023-07-20T03:27:02;99152.87;;;30.00;22.09
47592;BME280;33317;33.356;-117.184;2023-07-20T03:29:33;99151.72;;;29.88;22.27
47592;BME280;33317;33.356;-117.184;2023-07-20T03:32:03;99155.38;;;29.33;22.70
47592;BME280;33317;33.356;-117.184;2023-07-20T03:34:33;99157.02;;;29.67;22.80
47592;BME280;33317;33.356;-117.184;2023-07-20T03:37:04;99155.10;;;28.97;23.24
47592;BME280;33317;33.356;-117.184;2023-07-20T03:39:32;99155.57;;;29.61;22.96
47592;BME280;33317;33.356;-117.184;2023-07-20T03:42:01;99152.41;;;30.03;22.62
47592;BME280;33317;33.356;-117.184;2023-07-20T03:44:29;99157.65;;;30.14;22.00
47592;BME280;33317;33.356;-117.184;2023-07-20T03:46:59;99154.48;;;30.17;21.88
47592;BME280;33317;33.356;-117.184;2023-07-20T03:49:29;99158.81;;;29.64;22.67
47592;BME280;33317;33.356;-117.184;2023-07-20T03:52:01;99162.04;;;29.93;22.63
47592;BME280;33317;33.356;-117.184;2023-07-20T03:54:29;99161.47;;;30.16;22.73
47592;BME280;33317;33.356;-117.184;2023-07-20T03:56:58;99164.25;;;30.27;22.15
47592;BME280;33317;33.356;-117.184;2023-07-20T03:59:28;99166.63;;;30.54;21.72
47592;BME280;33317;33.356;-117.184;2023-07-20T04:01:56;99162.75;;;29.84;21.92
47592;BME280;33317;33.356;-117.184;2023-07-20T04:04:26;99168.21;;;29.69;22.33
47592;BME280;33317;33.356;-117.184;2023-07-20T04:06:54;99173.21;;;29.97;22.49
47592;BME280;33317;33.356;-117.184;2023-07-20T04:09:23;99179.55;;;30.02;22.75
47592;BME280;33317;33.356;-117.184;2023-07-20T04:11:52;99180.41;;;29.97;22.90
47592;BME280;33317;33.356;-117.184;2023-07-20T04:14:23;99188.68;;;30.30;22.41
47592;BME280;33317;33.356;-117.184;2023-07-20T04:16:52;99193.69;;;30.27;22.12
47592;BME280;33317;33.356;-117.184;2023-07-20T04:19:20;99198.23;;;30.04;22.25
47592;BME280;33317;33.356;-117.184;2023-07-20T04:21:49;99198.07;;;29.90;22.62
47592;BME280;33317;33.356;-117.184;2023-07-20T04:24:17;99201.62;;;30.21;22.98
47592;BME280;33317;33.356;-117.184;2023-07-20T04:26:45;99204.45;;;29.06;23.47
47592;BME280;33317;33.356;-117.184;2023-07-20T04:29:15;99207.06;;;29.14;23.75
47592;BME280;33317;33.356;-117.184;2023-07-20T04:31:45;99211.40;;;29.67;23.00
47592;BME280;33317;33.356;-117.184;2023-07-20T04:34:13;99214.64;;;29.79;22.39
47592;BME280;33317;33.356;-117.184;2023-07-20T04:36:42;99216.23;;;30.14;22.84
47592;BME280;33317;33.356;-117.184;2023-07-20T04:39:11;99215.26;;;29.94;22.95
47592;BME280;33317;33.356;-117.184;2023-07-20T04:41:39;99216.23;;;29.79;23.11
47592;BME280;33317;33.356;-117.184;2023-07-20T04:44:09;99217.47;;;30.02;23.16
47592;BME280;33317;33.356;-117.184;2023-07-20T04:46:38;99223.17;;;30.44;22.73
47592;BME280;33317;33.356;-117.184;2023-07-20T04:49:06;99224.90;;;30.09;22.38
47592;BME280;33317;33.356;-117.184;2023-07-20T04:51:34;99225.62;;;30.10;22.00
47592;BME280;33317;33.356;-117.184;2023-07-20T04:54:03;99230.11;;;29.91;21.90
47592;BME280;33317;33.356;-117.184;2023-07-20T04:56:32;99229.79;;;29.70;22.52
47592;BME280;33317;33.356;-117.184;2023-07-20T04:59:00;99232.06;;;29.90;22.57
47592;BME280;33317;33.356;-117.184;2023-07-20T05:01:29;99232.67;;;30.27;22.57
47592;BME280;33317;33.356;-117.184;2023-07-20T05:04:00;99231.68;;;30.34;22.56
47592;BME280;33317;33.356;-117.184;2023-07-20T05:06:29;99238.17;;;30.43;22.60
47592;BME280;33317;33.356;-117.184;2023-07-20T05:08:59;99243.58;;;30.53;22.66
47592;BME280;33317;33.356;-117.184;2023-07-20T05:11:27;99243.16;;;30.09;22.97
47592;BME280;33317;33.356;-117.184;2023-07-20T05:13:56;99239.83;;;30.47;22.98
47592;BME280;33317;33.356;-117.184;2023-07-20T05:16:24;99238.62;;;30.25;23.18
47592;BME280;33317;33.356;-117.184;2023-07-20T05:18:52;99232.14;;;30.11;23.25
47592;BME280;33317;33.356;-117.184;2023-07-20T05:21:23;99234.18;;;29.94;23.70
47592;BME280;33317;33.356;-117.184;2023-07-20T05:23:51;99231.16;;;30.20;23.03
47592;BME280;33317;33.356;-117.184;2023-07-20T05:26:19;99226.33;;;30.21;23.13
47592;BME280;33317;33.356;-117.184;2023-07-20T05:28:48;99224.69;;;30.35;23.33
47592;BME280;33317;33.356;-117.184;2023-07-20T05:31:16;99224.22;;;30.11;23.15
47592;BME280;33317;33.356;-117.184;2023-07-20T05:33:44;99224.28;;;30.44;23.39
47592;BME280;33317;33.356;-117.184;2023-07-20T05:36:13;99230.47;;;30.72;23.09
47592;BME280;33317;33.356;-117.184;2023-07-20T05:38:41;99232.17;;;30.70;23.12
47592;BME280;33317;33.356;-117.184;2023-07-20T05:41:10;99229.86;;;30.82;23.04
47592;BME280;33317;33.356;-117.184;2023-07-20T05:43:38;99229.57;;;30.80;23.05
47592;BME280;33317;33.356;-117.184;2023-07-20T05:46:07;99229.70;;;30.84;23.10
47592;BME280;33317;33.356;-117.184;2023-07-20T05:48:36;99233.06;;;30.84;23.13
47592;BME280;33317;33.356;-117.184;2023-07-20T05:51:04;99229.98;;;30.87;23.12
47592;BME280;33317;33.356;-117.184;2023-07-20T05:53:32;99225.44;;;30.79;23.34
47592;BME280;33317;33.356;-117.184;2023-07-20T05:56:01;99220.97;;;30.89;23.28
47592;BME280;33317;33.356;-117.184;2023-07-20T05:58:29;99218.14;;;30.93;23.25
47592;BME280;33317;33.356;-117.184;2023-07-20T06:00:57;99216.85;;;30.70;23.28
47592;BME280;33317;33.356;-117.184;2023-07-20T06:03:26;99213.99;;;30.71;23.21
47592;BME280;33317;33.356;-117.184;2023-07-20T06:05:59;99215.16;;;30.52;23.25
47592;BME280;33317;33.356;-117.184;2023-07-20T06:08:28;99216.52;;;31.10;23.30
47592;BME280;33317;33.356;-117.184;2023-07-20T06:10:56;99214.61;;;31.14;23.41
47592;BME280;33317;33.356;-117.184;2023-07-20T06:13:24;99214.96;;;30.81;23.35
47592;BME280;33317;33.356;-117.184;2023-07-20T06:15:54;99214.09;;;31.11;23.32
47592;BME280;33317;33.356;-117.184;2023-07-20T06:18:23;99215.56;;;31.15;23.50
47592;BME280;33317;33.356;-117.184;2023-07-20T06:20:52;99218.00;;;31.16;23.34
47592;BME280;33317;33.356;-117.184;2023-07-20T06:23:20;99216.96;;;31.16;23.52
47592;BME280;33317;33.356;-117.184;2023-07-20T06:25:48;99213.51;;;30.83;23.59
47592;BME280;33317;33.356;-117.184;2023-07-20T06:28:16;99208.82;;;31.11;23.52
47592;BME280;33317;33.356;-117.184;2023-07-20T06:30:45;99208.95;;;31.11;23.61
47592;BME280;33317;33.356;-117.184;2023-07-20T06:33:13;99206.75;;;31.10;23.63
47592;BME280;33317;33.356;-117.184;2023-07-20T06:35:42;99206.73;;;31.07;23.69
47592;BME280;33317;33.356;-117.184;2023-07-20T06:38:10;99203.25;;;31.07;23.70
47592;BME280;33317;33.356;-117.184;2023-07-20T06:40:39;99200.94;;;30.78;24.46
47592;BME280;33317;33.356;-117.184;2023-07-20T06:43:07;99200.30;;;30.99;24.15
47592;BME280;33317;33.356;-117.184;2023-07-20T06:45:35;99211.36;;;30.80;24.57
47592;BME280;33317;33.356;-117.184;2023-07-20T06:48:04;99215.04;;;30.93;24.50
47592;BME280;33317;33.356;-117.184;2023-07-20T06:50:32;99212.42;;;31.00;24.22
47592;BME280;33317;33.356;-117.184;2023-07-20T06:53:00;99211.32;;;30.99;24.12
47592;BME280;33317;33.356;-117.184;2023-07-20T06:55:28;99208.00;;;31.01;24.24
47592;BME280;33317;33.356;-117.184;2023-07-20T06:57:57;99206.11;;;31.02;24.30
47592;BME280;33317;33.356;-117.184;2023-07-20T07:00:25;99201.64;;;30.73;24.16
47592;BME280;33317;33.356;-117.184;2023-07-20T07:02:54;99205.23;;;31.06;24.28
47592;BME280;33317;33.356;-117.184;2023-07-20T07:05:22;99209.75;;;31.05;24.36
47592;BME280;33317;33.356;-117.184;2023-07-20T07:07:50;99213.04;;;31.24;24.44
47592;BME280;33317;33.356;-117.184;2023-07-20T07:10:19;99209.43;;;31.03;24.43
47592;BME280;33317;33.356;-117.184;2023-07-20T07:12:47;99207.60;;;31.01;24.52
47592;BME280;33317;33.356;-117.184;2023-07-20T07:15:15;99202.69;;;30.73;24.47
47592;BME280;33317;33.356;-117.184;2023-07-20T07:17:43;99197.17;;;31.00;24.58
47592;BME280;33317;33.356;-117.184;2023-07-20T07:20:12;99198.57;;;31.00;24.65
47592;BME280;33317;33.356;-117.184;2023-07-20T07:22:40;99202.43;;;30.98;24.77
47592;BME280;33317;33.356;-117.184;2023-07-20T07:25:10;99209.98;;;30.94;24.62
47592;BME280;33317;33.356;-117.184;2023-07-20T07:27:38;99215.36;;;31.17;24.63
47592;BME280;33317;33.356;-117.184;2023-07-20T07:30:07;99215.29;;;30.93;24.60
47592;BME280;33317;33.356;-117.184;2023-07-20T07:32:35;99207.31;;;30.91;24.64
47592;BME280;33317;33.356;-117.184;2023-07-20T07:35:05;99199.62;;;30.62;24.57
47592;BME280;33317;33.356;-117.184;2023-07-20T07:37:33;99192.09;;;30.90;24.60
47592;BME280;33317;33.356;-117.184;2023-07-20T07:40:02;99184.55;;;30.88;24.67
47592;BME280;33317;33.356;-117.184;2023-07-20T07:42:30;99180.03;;;30.86;24.83
47592;BME280;33317;33.356;-117.184;2023-07-20T07:44:58;99182.58;;;30.86;24.78
47592;BME280;33317;33.356;-117.184;2023-07-20T07:47:27;99184.53;;;30.84;24.81
47592;BME280;33317;33.356;-117.184;2023-07-20T07:49:56;99188.03;;;30.83;24.73
47592;BME280;33317;33.356;-117.184;2023-07-20T07:52:24;99190.99;;;30.83;24.86
47592;BME280;33317;33.356;-117.184;2023-07-20T07:54:53;99191.26;;;30.83;24.78
47592;BME280;33317;33.356;-117.184;2023-07-20T07:57:21;99189.72;;;31.03;24.80
47592;BME280;33317;33.356;-117.184;2023-07-20T07:59:49;99190.14;;;30.79;24.85
47592;BME280;33317;33.356;-117.184;2023-07-20T08:02:18;99187.82;;;31.01;24.95
47592;BME280;33317;33.356;-117.184;2023-07-20T08:04:46;99188.17;;;30.76;24.88
47592;BME280;33317;33.356;-117.184;2023-07-20T08:07:16;99186.12;;;30.75;25.07
47592;BME280;33317;33.356;-117.184;2023-07-20T08:09:44;99178.70;;;30.74;25.04
47592;BME280;33317;33.356;-117.184;2023-07-20T08:12:12;99170.11;;;30.75;24.91
47592;BME280;33317;33.356;-117.184;2023-07-20T08:14:41;99168.43;;;30.73;24.96
47592;BME280;33317;33.356;-117.184;2023-07-20T08:17:09;99168.35;;;30.95;24.88
47592;BME280;33317;33.356;-117.184;2023-07-20T08:19:38;99167.36;;;30.70;24.97
47592;BME280;33317;33.356;-117.184;2023-07-20T08:22:06;99167.24;;;30.70;25.02
47592;BME280;33317;33.356;-117.184;2023-07-20T08:24:34;99165.18;;;30.89;25.10
47592;BME280;33317;33.356;-117.184;2023-07-20T08:27:03;99163.90;;;30.67;25.15
47592;BME280;33317;33.356;-117.184;2023-07-20T08:29:33;99163.22;;;30.87;25.08
47592;BME280;33317;33.356;-117.184;2023-07-20T08:32:02;99162.59;;;30.62;25.29
47592;BME280;33317;33.356;-117.184;2023-07-20T08:34:30;99164.49;;;30.62;25.10
47592;BME280;33317;33.356;-117.184;2023-07-20T08:36:59;99161.89;;;30.31;25.17
47592;BME280;33317;33.356;-117.184;2023-07-20T08:39:28;99161.34;;;30.58;25.17
47592;BME280;33317;33.356;-117.184;2023-07-20T08:41:56;99156.51;;;30.78;25.20
47592;BME280;33317;33.356;-117.184;2023-07-20T08:44:27;99153.41;;;30.53;25.32
47592;BME280;33317;33.356;-117.184;2023-07-20T08:46:56;99150.69;;;30.54;25.24
47592;BME280;33317;33.356;-117.184;2023-07-20T08:49:25;99146.63;;;30.50;25.32
47592;BME280;33317;33.356;-117.184;2023-07-20T08:51:55;99142.41;;;30.51;25.36
47592;BME280;33317;33.356;-117.184;2023-07-20T08:54:26;99142.16;;;30.50;25.25
47592;BME280;33317;33.356;-117.184;2023-07-20T08:56:56;99141.61;;;30.48;25.30
47592;BME280;33317;33.356;-117.184;2023-07-20T08:59:26;99142.49;;;30.44;25.32
47592;BME280;33317;33.356;-117.184;2023-07-20T09:01:56;99143.46;;;30.40;25.28
47592;BME280;33317;33.356;-117.184;2023-07-20T09:04:25;99143.43;;;30.38;25.40
47592;BME280;33317;33.356;-117.184;2023-07-20T09:06:54;99143.53;;;30.36;25.51
47592;BME280;33317;33.356;-117.184;2023-07-20T09:09:23;99145.89;;;30.33;25.51
47592;BME280;33317;33.356;-117.184;2023-07-20T09:11:51;99147.37;;;30.32;25.63
47592;BME280;33317;33.356;-117.184;2023-07-20T09:14:19;99150.03;;;30.54;25.57
47592;BME280;33317;33.356;-117.184;2023-07-20T09:16:52;99149.23;;;30.50;25.57
47592;BME280;33317;33.356;-117.184;2023-07-20T09:19:21;99153.37;;;30.77;25.46
47592;BME280;33317;33.356;-117.184;2023-07-20T09:21:51;99152.73;;;30.48;25.53
47592;BME280;33317;33.356;-117.184;2023-07-20T09:24:21;99148.93;;;30.26;25.65
47592;BME280;33317;33.356;-117.184;2023-07-20T09:26:49;99147.00;;;30.23;25.63
47592;BME280;33317;33.356;-117.184;2023-07-20T09:29:20;99149.91;;;30.44;25.64
47592;BME280;33317;33.356;-117.184;2023-07-20T09:31:59;99148.21;;;30.42;25.58
47592;BME280;33317;33.356;-117.184;2023-07-20T09:34:29;99147.34;;;30.20;25.66
47592;BME280;33317;33.356;-117.184;2023-07-20T09:36:59;99139.75;;;30.43;25.72
47592;BME280;33317;33.356;-117.184;2023-07-20T09:39:27;99133.06;;;30.43;25.75
47592;BME280;33317;33.356;-117.184;2023-07-20T09:41:55;99123.13;;;30.19;25.65
47592;BME280;33317;33.356;-117.184;2023-07-20T09:44:29;99117.71;;;30.67;25.76
47592;BME280;33317;33.356;-117.184;2023-07-20T09:46:57;99118.17;;;30.35;25.77
47592;BME280;33317;33.356;-117.184;2023-07-20T09:49:25;99116.15;;;30.35;26.03
47592;BME280;33317;33.356;-117.184;2023-07-20T09:51:54;99117.48;;;30.35;25.87
47592;BME280;33317;33.356;-117.184;2023-07-20T09:54:23;99113.51;;;30.13;25.79
47592;BME280;33317;33.356;-117.184;2023-07-20T09:56:52;99116.02;;;30.29;25.87
47592;BME280;33317;33.356;-117.184;2023-07-20T09:59:21;99117.88;;;30.24;25.88
47592;BME280;33317;33.356;-117.184;2023-07-20T10:01:53;99114.57;;;30.21;25.89
47592;BME280;33317;33.356;-117.184;2023-07-20T10:04:26;99114.34;;;29.96;26.05
47592;BME280;33317;33.356;-117.184;2023-07-20T10:06:55;99108.57;;;30.16;26.02
47592;BME280;33317;33.356;-117.184;2023-07-20T10:09:27;99102.33;;;29.94;26.01
47592;BME280;33317;33.356;-117.184;2023-07-20T10:11:57;99099.66;;;30.41;26.17
47592;BME280;33317;33.356;-117.184;2023-07-20T10:14:28;99097.75;;;30.35;26.05
47592;BME280;33317;33.356;-117.184;2023-07-20T10:16:59;99100.62;;;30.09;25.98
47592;BME280;33317;33.356;-117.184;2023-07-20T10:19:34;99101.89;;;30.08;26.14
47592;BME280;33317;33.356;-117.184;2023-07-20T10:22:12;99103.25;;;30.07;26.22
47592;BME280;33317;33.356;-117.184;2023-07-20T10:24:44;99099.70;;;30.29;26.04
47592;BME280;33317;33.356;-117.184;2023-07-20T10:27:13;99098.38;;;30.28;26.25
47592;BME280;33317;33.356;-117.184;2023-07-20T10:29:41;99092.47;;;29.81;26.07
47592;BME280;33317;33.356;-117.184;2023-07-20T10:32:10;99085.88;;;30.03;26.27
47592;BME280;33317;33.356;-117.184;2023-07-20T10:34:38;99075.64;;;30.04;26.18
47592;BME280;33317;33.356;-117.184;2023-07-20T10:37:07;99069.02;;;30.02;26.11
47592;BME280;33317;33.356;-117.184;2023-07-20T10:39:35;99066.77;;;30.28;26.43
47592;BME280;33317;33.356;-117.184;2023-07-20T10:42:06;99065.12;;;29.96;26.26
47592;BME280;33317;33.356;-117.184;2023-07-20T10:44:37;99063.43;;;29.99;26.20
47592;BME280;33317;33.356;-117.184;2023-07-20T10:47:10;99060.08;;;30.24;26.39
47592;BME280;33317;33.356;-117.184;2023-07-20T10:49:58;99059.83;;;30.24;26.29
47592;BME280;33317;33.356;-117.184;2023-07-20T10:52:26;99056.15;;;30.26;26.42
47592;BME280;33317;33.356;-117.184;2023-07-20T10:55:11;99060.47;;;29.90;26.27
47592;BME280;33317;33.356;-117.184;2023-07-20T10:57:41;99064.52;;;29.94;26.37
47592;BME280;33317;33.356;-117.184;2023-07-20T11:00:11;99066.55;;;29.93;26.38
47592;BME280;33317;33.356;-117.184;2023-07-20T11:02:44;99067.39;;;30.16;26.39
47592;BME280;33317;33.356;-117.184;2023-07-20T11:05:44;99066.89;;;29.80;26.42
47592;BME280;33317;33.356;-117.184;2023-07-20T11:08:13;99063.32;;;29.76;26.50
47592;BME280;33317;33.356;-117.184;2023-07-20T11:11:38;99063.25;;;29.64;26.48
47592;BME280;33317;33.356;-117.184;2023-07-20T11:14:08;99063.20;;;29.65;26.51
47592;BME280;33317;33.356;-117.184;2023-07-20T11:16:39;99064.11;;;29.78;26.64
47592;BME280;33317;33.356;-117.184;2023-07-20T11:19:14;99066.17;;;29.49;26.58
47592;BME280;33317;33.356;-117.184;2023-07-20T11:21:44;99070.90;;;29.54;26.71
47592;BME280;33317;33.356;-117.184;2023-07-20T11:24:13;99075.07;;;29.85;26.71
47592;BME280;33317;33.356;-117.184;2023-07-20T11:26:43;99076.46;;;29.78;26.65
47592;BME280;33317;33.356;-117.184;2023-07-20T11:29:11;99078.46;;;29.78;26.75
47592;BME280;33317;33.356;-117.184;2023-07-20T11:31:40;99080.39;;;29.77;26.77
47592;BME280;33317;33.356;-117.184;2023-07-20T11:34:11;99079.50;;;29.78;26.81
47592;BME280;33317;33.356;-117.184;2023-07-20T11:36:40;99081.13;;;29.84;26.77
47592;BME280;33317;33.356;-117.184;2023-07-20T11:39:10;99080.27;;;29.59;26.82
47592;BME280;33317;33.356;-117.184;2023-07-20T11:41:43;99077.21;;;29.87;26.81
47592;BME280;33317;33.356;-117.184;2023-07-20T11:44:12;99079.65;;;29.42;26.74
47592;BME280;33317;33.356;-117.184;2023-07-20T11:46:41;99086.00;;;29.91;26.62
47592;BME280;33317;33.356;-117.184;2023-07-20T11:49:09;99090.37;;;29.88;26.80
47592;BME280;33317;33.356;-117.184;2023-07-20T11:51:39;99094.00;;;29.79;26.84
47592;BME280;33317;33.356;-117.184;2023-07-20T11:54:09;99094.46;;;29.84;26.88
47592;BME280;33317;33.356;-117.184;2023-07-20T11:56:42;99095.60;;;29.84;26.79
47592;BME280;33317;33.356;-117.184;2023-07-20T11:59:11;99095.05;;;29.79;26.96
47592;BME280;33317;33.356;-117.184;2023-07-20T12:01:39;99093.13;;;29.53;26.90
47592;BME280;33317;33.356;-117.184;2023-07-20T12:04:07;99093.39;;;29.72;26.97
47592;BME280;33317;33.356;-117.184;2023-07-20T12:06:36;99092.97;;;29.61;26.94
47592;BME280;33317;33.356;-117.184;2023-07-20T12:09:04;99092.28;;;29.48;27.12
47592;BME280;33317;33.356;-117.184;2023-07-20T12:11:34;99092.24;;;29.21;27.09
47592;BME280;33317;33.356;-117.184;2023-07-20T12:14:03;99093.02;;;29.55;26.99
47592;BME280;33317;33.356;-117.184;2023-07-20T12:16:32;99094.17;;;29.73;27.01
47592;BME280;33317;33.356;-117.184;2023-07-20T12:19:01;99100.93;;;29.18;27.05
47592;BME280;33317;33.356;-117.184;2023-07-20T12:21:29;99103.06;;;29.54;27.13
47592;BME280;33317;33.356;-117.184;2023-07-20T12:23:58;99106.19;;;29.44;27.04
47592;BME280;33317;33.356;-117.184;2023-07-20T12:26:28;99107.92;;;29.43;27.05
47592;BME280;33317;33.356;-117.184;2023-07-20T12:28:57;99108.84;;;29.56;27.19
47592;BME280;33317;33.356;-117.184;2023-07-20T12:31:26;99113.36;;;29.81;27.22
47592;BME280;33317;33.356;-117.184;2023-07-20T12:33:56;99120.68;;;29.41;27.11
47592;BME280;33317;33.356;-117.184;2023-07-20T12:36:24;99123.23;;;29.34;27.30
47592;BME280;33317;33.356;-117.184;2023-07-20T12:38:52;99126.31;;;29.40;27.33
47592;BME280;33317;33.356;-117.184;2023-07-20T12:41:21;99126.75;;;29.43;27.26
47592;BME280;33317;33.356;-117.184;2023-07-20T12:43:49;99130.15;;;29.34;27.30